sensor_id;sensor_type;location;lat;lon;timestamp;temperature;humidity
5011;DHT22;2524;54.364;10.072;2022-08-14T00:01:56;23.80;95.90
5011;DHT22;2524;54.364;10.072;2022-08-14T00:04:23;23.80;95.90
5011;DHT22;2524;54.364;10.072;2022-08-14T00:06:48;23.80;96.00
5011;DHT22;2524;54.364;10.072;2022-08-14T00:09:14;23.80;96.10
5011;DHT22;2524;54.364;10.072;2022-08-14T00:11:39;23.80;96.10
5011;DHT22;2524;54.364;10.072;2022-08-14T00:14:05;23.80;96.20
5011;DHT22;2524;54.364;10.072;2022-08-14T00:16:31;23.70;96.20
5011;DHT22;2524;54.364;10.072;2022-08-14T00:18:57;23.70;96.30
5011;DHT22;2524;54.364;10.072;2022-08-14T00:21:22;23.70;96.40
5011;DHT22;2524;54.364;10.072;2022-08-14T00:23:48;23.80;96.50
5011;DHT22;2524;54.364;10.072;2022-08-14T00:26:16;23.70;96.60
5011;DHT22;2524;54.364;10.072;2022-08-14T00:28:41;23.70;96.60
5011;DHT22;2524;54.364;10.072;2022-08-14T00:31:08;23.60;96.60
5011;DHT22;2524;54.364;10.072;2022-08-14T00:33:34;23.60;96.80
5011;DHT22;2524;54.364;10.072;2022-08-14T00:36:00;23.50;96.90
5011;DHT22;2524;54.364;10.072;2022-08-14T00:38:25;23.50;97.00
5011;DHT22;2524;54.364;10.072;2022-08-14T00:40:51;23.50;97.10
5011;DHT22;2524;54.364;10.072;2022-08-14T00:43:17;23.40;97.20
5011;DHT22;2524;54.364;10.072;2022-08-14T00:45:43;23.30;97.60
5011;DHT22;2524;54.364;10.072;2022-08-14T00:48:09;23.30;97.40
5011;DHT22;2524;54.364;10.072;2022-08-14T00:50:35;23.30;97.50
5011;DHT22;2524;54.364;10.072;2022-08-14T00:53:00;23.30;97.70
5011;DHT22;2524;54.364;10.072;2022-08-14T00:55:27;23.30;97.80
5011;DHT22;2524;54.364;10.072;2022-08-14T00:57:54;23.30;97.80
5011;DHT22;2524;54.364;10.072;2022-08-14T01:00:39;23.30;97.90
5011;DHT22;2524;54.364;10.072;2022-08-14T01:03:06;23.20;97.90
5011;DHT22;2524;54.364;10.072;2022-08-14T01:05:33;23.20;98.00
5011;DHT22;2524;54.364;10.072;2022-08-14T01:07:59;23.20;98.10
5011;DHT22;2524;54.364;10.072;2022-08-14T01:10:27;23.20;98.10
5011;DHT22;2524;54.364;10.072;2022-08-14T01:13:15;23.20;98.20
5011;DHT22;2524;54.364;10.072;2022-08-14T01:15:50;23.10;98.30
5011;DHT22;2524;54.364;10.072;2022-08-14T01:18:17;23.10;98.30
5011;DHT22;2524;54.364;10.072;2022-08-14T01:21:03;23.10;98.30
5011;DHT22;2524;54.364;10.072;2022-08-14T01:23:32;23.00;98.40
5011;DHT22;2524;54.364;10.072;2022-08-14T01:25:59;23.00;98.50
5011;DHT22;2524;54.364;10.072;2022-08-14T01:28:25;22.90;98.50
5011;DHT22;2524;54.364;10.072;2022-08-14T01:30:56;22.90;98.60
5011;DHT22;2524;54.364;10.072;2022-08-14T01:33:23;22.90;98.70
5011;DHT22;2524;54.364;10.072;2022-08-14T01:35:57;22.90;98.80
5011;DHT22;2524;54.364;10.072;2022-08-14T01:38:26;22.90;98.90
5011;DHT22;2524;54.364;10.072;2022-08-14T01:41:04;22.90;98.90
5011;DHT22;2524;54.364;10.072;2022-08-14T01:43:31;22.80;99.00
5011;DHT22;2524;54.364;10.072;2022-08-14T01:45:58;22.70;99.00
5011;DHT22;2524;54.364;10.072;2022-08-14T01:48:25;22.80;99.20
5011;DHT22;2524;54.364;10.072;2022-08-14T01:50:56;22.80;99.20
5011;DHT22;2524;54.364;10.072;2022-08-14T01:53:25;22.80;99.30
5011;DHT22;2524;54.364;10.072;2022-08-14T01:55:56;22.70;99.20
5011;DHT22;2524;54.364;10.072;2022-08-14T01:58:23;22.80;99.40
5011;DHT22;2524;54.364;10.072;2022-08-14T02:00:54;22.80;99.50
5011;DHT22;2524;54.364;10.072;2022-08-14T02:03:28;22.70;99.50
5011;DHT22;2524;54.364;10.072;2022-08-14T02:05:55;22.70;99.50
5011;DHT22;2524;54.364;10.072;2022-08-14T02:08:27;22.70;99.50
5011;DHT22;2524;54.364;10.072;2022-08-14T02:10:58;22.70;99.50
5011;DHT22;2524;54.364;10.072;2022-08-14T02:13:45;22.60;99.50
5011;DHT22;2524;54.364;10.072;2022-08-14T02:16:12;22.70;99.60
5011;DHT22;2524;54.364;10.072;2022-08-14T02:18:41;22.70;99.60
5011;DHT22;2524;54.364;10.072;2022-08-14T02:21:07;22.70;99.70
5011;DHT22;2524;54.364;10.072;2022-08-14T02:23:33;22.70;99.70
5011;DHT22;2524;54.364;10.072;2022-08-14T02:26:01;22.70;99.70
5011;DHT22;2524;54.364;10.072;2022-08-14T02:28:29;22.60;99.60
5011;DHT22;2524;54.364;10.072;2022-08-14T02:30:57;22.60;99.60
5011;DHT22;2524;54.364;10.072;2022-08-14T02:33:23;22.60;99.70
5011;DHT22;2524;54.364;10.072;2022-08-14T02:35:49;22.60;99.70
5011;DHT22;2524;54.364;10.072;2022-08-14T02:38:16;22.50;99.80
5011;DHT22;2524;54.364;10.072;2022-08-14T02:40:41;22.50;99.90
5011;DHT22;2524;54.364;10.072;2022-08-14T02:43:07;22.50;99.90
5011;DHT22;2524;54.364;10.072;2022-08-14T02:45:33;22.40;99.90
5011;DHT22;2524;54.364;10.072;2022-08-14T02:48:00;22.40;99.90
5011;DHT22;2524;54.364;10.072;2022-08-14T02:50:28;22.40;99.90
5011;DHT22;2524;54.364;10.072;2022-08-14T02:52:54;22.40;99.90
5011;DHT22;2524;54.364;10.072;2022-08-14T02:55:20;22.40;99.90
5011;DHT22;2524;54.364;10.072;2022-08-14T02:57:49;22.40;99.90
5011;DHT22;2524;54.364;10.072;2022-08-14T03:00:16;22.40;99.90
5011;DHT22;2524;54.364;10.072;2022-08-14T03:02:42;22.30;99.90
5011;DHT22;2524;54.364;10.072;2022-08-14T03:05:08;22.30;99.90
5011;DHT22;2524;54.364;10.072;2022-08-14T03:07:36;22.30;99.90
5011;DHT22;2524;54.364;10.072;2022-08-14T03:10:03;22.30;99.90
5011;DHT22;2524;54.364;10.072;2022-08-14T03:12:28;22.30;99.90
5011;DHT22;2524;54.364;10.072;2022-08-14T03:14:56;22.30;99.90
5011;DHT22;2524;54.364;10.072;2022-08-14T03:17:22;22.20;99.90
5011;DHT22;2524;54.364;10.072;2022-08-14T03:19:48;22.20;99.90
5011;DHT22;2524;54.364;10.072;2022-08-14T03:22:16;22.30;99.90
5011;DHT22;2524;54.364;10.072;2022-08-14T03:24:42;22.20;99.90
5011;DHT22;2524;54.364;10.072;2022-08-14T03:27:08;22.20;99.90
5011;DHT22;2524;54.364;10.072;2022-08-14T03:29:38;22.20;99.90
5011;DHT22;2524;54.364;10.072;2022-08-14T03:32:05;22.20;99.90
5011;DHT22;2524;54.364;10.072;2022-08-14T03:34:31;22.20;99.90
5011;DHT22;2524;54.364;10.072;2022-08-14T03:36:56;22.20;99.90
5011;DHT22;2524;54.364;10.072;2022-08-14T03:39:23;22.20;99.90
5011;DHT22;2524;54.364;10.072;2022-08-14T03:41:53;22.20;99.90
5011;DHT22;2524;54.364;10.072;2022-08-14T03:44:20;22.30;99.90
5011;DHT22;2524;54.364;10.072;2022-08-14T03:46:46;22.30;99.90
5011;DHT22;2524;54.364;10.072;2022-08-14T03:49:12;22.30;99.90
5011;DHT22;2524;54.364;10.072;2022-08-14T03:51:38;22.30;99.90
5011;DHT22;2524;54.364;10.072;2022-08-14T03:54:05;22.30;99.90
5011;DHT22;2524;54.364;10.072;2022-08-14T03:56:35;22.30;99.90
5011;DHT22;2524;54.364;10.072;2022-08-14T03:59:04;22.30;99.90
5011;DHT22;2524;54.364;10.072;2022-08-14T04:01:39;22.30;99.90
5011;DHT22;2524;54.364;10.072;2022-08-14T04:04:05;22.30;99.90
5011;DHT22;2524;54.364;10.072;2022-08-14T04:06:36;22.30;99.90
5011;DHT22;2524;54.364;10.072;2022-08-14T04:09:04;22.30;99.90
5011;DHT22;2524;54.364;10.072;2022-08-14T04:11:30;22.30;99.90
5011;DHT22;2524;54.364;10.072;2022-08-14T04:13:56;22.20;99.90
5011;DHT22;2524;54.364;10.072;2022-08-14T04:16:21;22.30;99.90
5011;DHT22;2524;54.364;10.072;2022-08-14T04:18:55;22.20;99.90
5011;DHT22;2524;54.364;10.072;2022-08-14T04:21:24;22.20;99.90
5011;DHT22;2524;54.364;10.072;2022-08-14T04:23:53;22.20;99.90
5011;DHT22;2524;54.364;10.072;2022-08-14T04:26:19;22.30;99.90
5011;DHT22;2524;54.364;10.072;2022-08-14T04:28:48;22.20;99.90
5011;DHT22;2524;54.364;10.072;2022-08-14T04:31:14;22.20;99.90
5011;DHT22;2524;54.364;10.072;2022-08-14T04:33:40;22.20;99.90
5011;DHT22;2524;54.364;10.072;2022-08-14T04:36:06;22.20;99.90
5011;DHT22;2524;54.364;10.072;2022-08-14T04:38:32;22.10;99.90
5011;DHT22;2524;54.364;10.072;2022-08-14T04:41:17;22.00;99.90
5011;DHT22;2524;54.364;10.072;2022-08-14T04:44:18;22.00;99.90
5011;DHT22;2524;54.364;10.072;2022-08-14T04:46:43;22.00;99.90
5011;DHT22;2524;54.364;10.072;2022-08-14T04:49:28;22.10;99.90
5011;DHT22;2524;54.364;10.072;2022-08-14T04:51:53;22.00;99.90
5011;DHT22;2524;54.364;10.072;2022-08-14T04:54:20;22.00;99.90
5011;DHT22;2524;54.364;10.072;2022-08-14T04:56:45;22.00;99.90
5011;DHT22;2524;54.364;10.072;2022-08-14T04:59:11;22.00;99.90
5011;DHT22;2524;54.364;10.072;2022-08-14T05:01:39;21.90;99.90
5011;DHT22;2524;54.364;10.072;2022-08-14T05:04:07;22.00;99.90
5011;DHT22;2524;54.364;10.072;2022-08-14T05:06:33;21.90;99.90
5011;DHT22;2524;54.364;10.072;2022-08-14T05:08:58;21.90;99.90
5011;DHT22;2524;54.364;10.072;2022-08-14T05:11:24;21.90;99.90
5011;DHT22;2524;54.364;10.072;2022-08-14T05:13:49;21.90;99.90
5011;DHT22;2524;54.364;10.072;2022-08-14T05:16:15;21.90;99.90
5011;DHT22;2524;54.364;10.072;2022-08-14T05:18:41;21.90;99.90
5011;DHT22;2524;54.364;10.072;2022-08-14T05:21:08;21.90;99.90
5011;DHT22;2524;54.364;10.072;2022-08-14T05:23:36;22.00;99.90
5011;DHT22;2524;54.364;10.072;2022-08-14T05:26:03;21.90;99.90
5011;DHT22;2524;54.364;10.072;2022-08-14T05:28:38;21.90;99.90
5011;DHT22;2524;54.364;10.072;2022-08-14T05:31:06;22.00;99.90
5011;DHT22;2524;54.364;10.072;2022-08-14T05:33:33;22.00;99.90
5011;DHT22;2524;54.364;10.072;2022-08-14T05:36:02;22.00;99.90
5011;DHT22;2524;54.364;10.072;2022-08-14T05:38:30;22.00;99.90
5011;DHT22;2524;54.364;10.072;2022-08-14T05:40:59;22.10;99.90
5011;DHT22;2524;54.364;10.072;2022-08-14T05:43:25;22.00;99.90
5011;DHT22;2524;54.364;10.072;2022-08-14T05:45:50;22.20;99.90
5011;DHT22;2524;54.364;10.072;2022-08-14T05:48:16;22.10;99.90
5011;DHT22;2524;54.364;10.072;2022-08-14T05:50:42;22.10;99.90
5011;DHT22;2524;54.364;10.072;2022-08-14T05:53:07;22.10;99.90
5011;DHT22;2524;54.364;10.072;2022-08-14T05:55:33;22.10;99.90
5011;DHT22;2524;54.364;10.072;2022-08-14T05:58:04;22.20;99.90
5011;DHT22;2524;54.364;10.072;2022-08-14T06:00:33;22.20;99.90
5011;DHT22;2524;54.364;10.072;2022-08-14T06:03:02;22.20;99.90
5011;DHT22;2524;54.364;10.072;2022-08-14T06:05:28;22.30;99.90
5011;DHT22;2524;54.364;10.072;2022-08-14T06:07:55;22.30;99.90
5011;DHT22;2524;54.364;10.072;2022-08-14T06:10:21;22.30;99.90
5011;DHT22;2524;54.364;10.072;2022-08-14T06:12:46;22.40;99.90
5011;DHT22;2524;54.364;10.072;2022-08-14T06:15:12;22.30;99.90
5011;DHT22;2524;54.364;10.072;2022-08-14T06:17:46;22.40;99.90
5011;DHT22;2524;54.364;10.072;2022-08-14T06:20:13;22.40;99.90
5011;DHT22;2524;54.364;10.072;2022-08-14T06:22:43;22.40;99.90
5011;DHT22;2524;54.364;10.072;2022-08-14T06:25:11;22.50;99.90
5011;DHT22;2524;54.364;10.072;2022-08-14T06:27:38;22.50;99.90
5011;DHT22;2524;54.364;10.072;2022-08-14T06:30:09;22.50;99.90
5011;DHT22;2524;54.364;10.072;2022-08-14T06:32:35;22.60;99.90
5011;DHT22;2524;54.364;10.072;2022-08-14T06:35:05;22.60;99.90
5011;DHT22;2524;54.364;10.072;2022-08-14T06:37:44;22.60;99.90
5011;DHT22;2524;54.364;10.072;2022-08-14T06:40:12;22.70;99.90
5011;DHT22;2524;54.364;10.072;2022-08-14T06:42:39;22.70;99.90
5011;DHT22;2524;54.364;10.072;2022-08-14T06:45:05;22.80;99.90
5011;DHT22;2524;54.364;10.072;2022-08-14T06:47:35;22.80;99.90
5011;DHT22;2524;54.364;10.072;2022-08-14T06:50:06;22.90;99.90
5011;DHT22;2524;54.364;10.072;2022-08-14T06:52:32;22.90;99.90
5011;DHT22;2524;54.364;10.072;2022-08-14T06:54:58;22.90;99.90
5011;DHT22;2524;54.364;10.072;2022-08-14T06:57:24;22.90;99.90
5011;DHT22;2524;54.364;10.072;2022-08-14T06:59:50;23.00;99.90
5011;DHT22;2524;54.364;10.072;2022-08-14T07:02:15;23.00;99.90
5011;DHT22;2524;54.364;10.072;2022-08-14T07:05:00;23.00;99.90
5011;DHT22;2524;54.364;10.072;2022-08-14T07:07:44;23.10;99.90
5011;DHT22;2524;54.364;10.072;2022-08-14T07:10:11;23.10;99.90
5011;DHT22;2524;54.364;10.072;2022-08-14T07:12:36;23.10;99.90
5011;DHT22;2524;54.364;10.072;2022-08-14T07:15:04;23.10;99.90
5011;DHT22;2524;54.364;10.072;2022-08-14T07:17:30;23.20;99.90
5011;DHT22;2524;54.364;10.072;2022-08-14T07:19:56;23.30;99.90
5011;DHT22;2524;54.364;10.072;2022-08-14T07:22:21;23.30;99.90
5011;DHT22;2524;54.364;10.072;2022-08-14T07:24:47;23.30;99.90
5011;DHT22;2524;54.364;10.072;2022-08-14T07:27:12;23.30;99.90
5011;DHT22;2524;54.364;10.072;2022-08-14T07:29:38;23.40;99.90
5011;DHT22;2524;54.364;10.072;2022-08-14T07:32:04;23.50;99.90
5011;DHT22;2524;54.364;10.072;2022-08-14T07:34:29;23.50;99.90
5011;DHT22;2524;54.364;10.072;2022-08-14T07:36:55;23.60;99.90
5011;DHT22;2524;54.364;10.072;2022-08-14T07:39:21;23.60;99.90
5011;DHT22;2524;54.364;10.072;2022-08-14T07:41:46;23.60;99.90
5011;DHT22;2524;54.364;10.072;2022-08-14T07:44:12;23.70;99.90
5011;DHT22;2524;54.364;10.072;2022-08-14T07:46:38;23.70;99.90
5011;DHT22;2524;54.364;10.072;2022-08-14T07:49:05;23.70;99.90
5011;DHT22;2524;54.364;10.072;2022-08-14T07:51:31;23.70;99.90
5011;DHT22;2524;54.364;10.072;2022-08-14T07:53:57;23.70;99.90
5011;DHT22;2524;54.364;10.072;2022-08-14T07:56:23;23.80;99.90
5011;DHT22;2524;54.364;10.072;2022-08-14T07:58:49;23.80;99.90
5011;DHT22;2524;54.364;10.072;2022-08-14T08:01:15;23.90;99.90
5011;DHT22;2524;54.364;10.072;2022-08-14T08:03:45;24.00;99.90
5011;DHT22;2524;54.364;10.072;2022-08-14T08:06:11;24.10;99.90
5011;DHT22;2524;54.364;10.072;2022-08-14T08:08:37;24.20;99.90
5011;DHT22;2524;54.364;10.072;2022-08-14T08:11:03;24.20;99.90
5011;DHT22;2524;54.364;10.072;2022-08-14T08:13:32;24.30;99.90
5011;DHT22;2524;54.364;10.072;2022-08-14T08:15:58;24.40;99.90
5011;DHT22;2524;54.364;10.072;2022-08-14T08:18:25;24.40;99.90
5011;DHT22;2524;54.364;10.072;2022-08-14T08:20:53;24.50;99.90
5011;DHT22;2524;54.364;10.072;2022-08-14T08:23:21;24.50;99.90
5011;DHT22;2524;54.364;10.072;2022-08-14T08:25:48;24.60;99.90
5011;DHT22;2524;54.364;10.072;2022-08-14T08:28:22;24.70;99.90
5011;DHT22;2524;54.364;10.072;2022-08-14T08:31:01;24.80;99.90
5011;DHT22;2524;54.364;10.072;2022-08-14T08:33:29;24.90;99.90
5011;DHT22;2524;54.364;10.072;2022-08-14T08:36:05;25.00;99.90
5011;DHT22;2524;54.364;10.072;2022-08-14T08:38:31;25.10;99.90
5011;DHT22;2524;54.364;10.072;2022-08-14T08:40:58;25.20;99.90
5011;DHT22;2524;54.364;10.072;2022-08-14T08:43:33;25.20;99.90
5011;DHT22;2524;54.364;10.072;2022-08-14T08:46:10;25.20;99.90
5011;DHT22;2524;54.364;10.072;2022-08-14T08:48:54;25.20;99.90
5011;DHT22;2524;54.364;10.072;2022-08-14T08:51:26;25.20;99.90
5011;DHT22;2524;54.364;10.072;2022-08-14T08:59:14;25.10;99.90
5011;DHT22;2524;54.364;10.072;2022-08-14T09:01:39;25.10;99.90
5011;DHT22;2524;54.364;10.072;2022-08-14T09:04:05;25.10;99.90
5011;DHT22;2524;54.364;10.072;2022-08-14T09:06:31;25.10;99.90
5011;DHT22;2524;54.364;10.072;2022-08-14T09:08:56;25.10;99.90
5011;DHT22;2524;54.364;10.072;2022-08-14T09:11:22;25.10;99.90
5011;DHT22;2524;54.364;10.072;2022-08-14T09:13:52;25.20;99.90
5011;DHT22;2524;54.364;10.072;2022-08-14T09:16:23;25.10;99.90
5011;DHT22;2524;54.364;10.072;2022-08-14T09:18:49;25.20;99.90
5011;DHT22;2524;54.364;10.072;2022-08-14T09:21:15;25.20;99.90
5011;DHT22;2524;54.364;10.072;2022-08-14T09:23:42;25.20;99.90
5011;DHT22;2524;54.364;10.072;2022-08-14T09:26:08;25.20;99.90
5011;DHT22;2524;54.364;10.072;2022-08-14T09:28:34;25.20;99.90
5011;DHT22;2524;54.364;10.072;2022-08-14T09:31:00;25.20;99.90
5011;DHT22;2524;54.364;10.072;2022-08-14T09:36:33;25.20;99.90
5011;DHT22;2524;54.364;10.072;2022-08-14T09:45:19;25.30;99.90
5011;DHT22;2524;54.364;10.072;2022-08-14T09:47:50;25.30;99.90
5011;DHT22;2524;54.364;10.072;2022-08-14T09:55:23;25.40;99.90
5011;DHT22;2524;54.364;10.072;2022-08-14T09:57:51;25.50;99.90
5011;DHT22;2524;54.364;10.072;2022-08-14T10:00:18;25.60;99.90
5011;DHT22;2524;54.364;10.072;2022-08-14T10:02:56;25.70;99.90
5011;DHT22;2524;54.364;10.072;2022-08-14T10:05:36;25.70;99.90
5011;DHT22;2524;54.364;10.072;2022-08-14T10:08:03;25.70;99.90
5011;DHT22;2524;54.364;10.072;2022-08-14T10:10:41;25.70;99.90
5011;DHT22;2524;54.364;10.072;2022-08-14T10:13:20;25.70;99.90
5011;DHT22;2524;54.364;10.072;2022-08-14T10:15:46;25.70;99.90
5011;DHT22;2524;54.364;10.072;2022-08-14T10:18:16;25.80;99.90
5011;DHT22;2524;54.364;10.072;2022-08-14T10:20:59;25.80;99.90
5011;DHT22;2524;54.364;10.072;2022-08-14T10:23:28;25.90;99.90
5011;DHT22;2524;54.364;10.072;2022-08-14T10:26:06;26.00;99.90
5011;DHT22;2524;54.364;10.072;2022-08-14T10:28:42;26.00;99.90
5011;DHT22;2524;54.364;10.072;2022-08-14T10:31:20;26.10;99.90
5011;DHT22;2524;54.364;10.072;2022-08-14T10:34:08;26.10;99.90
5011;DHT22;2524;54.364;10.072;2022-08-14T10:36:36;26.20;99.90
5011;DHT22;2524;54.364;10.072;2022-08-14T10:39:17;26.20;99.90
5011;DHT22;2524;54.364;10.072;2022-08-14T10:41:44;26.20;99.90
5011;DHT22;2524;54.364;10.072;2022-08-14T10:44:13;26.20;99.90
5011;DHT22;2524;54.364;10.072;2022-08-14T10:46:46;26.30;99.90
5011;DHT22;2524;54.364;10.072;2022-08-14T10:49:17;26.30;99.90
5011;DHT22;2524;54.364;10.072;2022-08-14T10:52:00;26.30;99.90
5011;DHT22;2524;54.364;10.072;2022-08-14T10:54:40;26.30;99.90
5011;DHT22;2524;54.364;10.072;2022-08-14T10:57:20;26.40;99.90
5011;DHT22;2524;54.364;10.072;2022-08-14T10:59:54;26.40;99.90
5011;DHT22;2524;54.364;10.072;2022-08-14T11:05:14;26.30;99.90
5011;DHT22;2524;54.364;10.072;2022-08-14T11:07:53;26.30;99.90
5011;DHT22;2524;54.364;10.072;2022-08-14T11:10:21;26.30;99.90
5011;DHT22;2524;54.364;10.072;2022-08-14T11:12:53;26.30;99.90
5011;DHT22;2524;54.364;10.072;2022-08-14T11:15:23;26.20;99.90
5011;DHT22;2524;54.364;10.072;2022-08-14T11:17:50;26.20;99.90
5011;DHT22;2524;54.364;10.072;2022-08-14T11:20:18;26.20;99.90
5011;DHT22;2524;54.364;10.072;2022-08-14T11:22:45;26.20;99.90
5011;DHT22;2524;54.364;10.072;2022-08-14T11:25:13;26.10;99.90
5011;DHT22;2524;54.364;10.072;2022-08-14T11:27:44;26.10;99.90
5011;DHT22;2524;54.364;10.072;2022-08-14T11:30:15;26.10;99.90
5011;DHT22;2524;54.364;10.072;2022-08-14T11:32:47;26.10;99.90
5011;DHT22;2524;54.364;10.072;2022-08-14T11:35:21;26.10;99.90
5011;DHT22;2524;54.364;10.072;2022-08-14T11:37:55;26.10;99.90
5011;DHT22;2524;54.364;10.072;2022-08-14T11:40:23;26.10;99.90
5011;DHT22;2524;54.364;10.072;2022-08-14T11:42:50;26.10;99.90
5011;DHT22;2524;54.364;10.072;2022-08-14T11:45:21;26.10;99.90
5011;DHT22;2524;54.364;10.072;2022-08-14T11:47:48;26.10;99.90
5011;DHT22;2524;54.364;10.072;2022-08-14T11:50:27;26.10;99.90
5011;DHT22;2524;54.364;10.072;2022-08-14T11:52:55;26.00;99.90
5011;DHT22;2524;54.364;10.072;2022-08-14T11:55:24;26.00;99.90
5011;DHT22;2524;54.364;10.072;2022-08-14T11:58:06;26.00;99.90
5011;DHT22;2524;54.364;10.072;2022-08-14T12:00:52;26.00;99.90
5011;DHT22;2524;54.364;10.072;2022-08-14T12:03:18;26.00;99.90
5011;DHT22;2524;54.364;10.072;2022-08-14T12:05:43;26.00;99.90
5011;DHT22;2524;54.364;10.072;2022-08-14T12:08:10;26.00;99.90
5011;DHT22;2524;54.364;10.072;2022-08-14T12:10:39;26.00;99.90
5011;DHT22;2524;54.364;10.072;2022-08-14T12:13:14;26.00;99.90
5011;DHT22;2524;54.364;10.072;2022-08-14T12:15:42;26.00;99.90
5011;DHT22;2524;54.364;10.072;2022-08-14T12:18:08;26.00;99.90
5011;DHT22;2524;54.364;10.072;2022-08-14T12:20:36;26.00;99.90
5011;DHT22;2524;54.364;10.072;2022-08-14T12:23:06;26.00;99.90
5011;DHT22;2524;54.364;10.072;2022-08-14T12:25:34;26.00;99.90
5011;DHT22;2524;54.364;10.072;2022-08-14T12:28:09;26.00;99.90
5011;DHT22;2524;54.364;10.072;2022-08-14T12:30:41;26.00;99.90
5011;DHT22;2524;54.364;10.072;2022-08-14T12:33:22;26.00;99.90
5011;DHT22;2524;54.364;10.072;2022-08-14T12:35:53;26.00;99.90
5011;DHT22;2524;54.364;10.072;2022-08-14T12:38:33;26.00;99.90
5011;DHT22;2524;54.364;10.072;2022-08-14T12:41:00;26.10;99.90
5011;DHT22;2524;54.364;10.072;2022-08-14T12:43:26;26.00;99.90
5011;DHT22;2524;54.364;10.072;2022-08-14T12:45:53;26.10;99.90
5011;DHT22;2524;54.364;10.072;2022-08-14T12:48:23;26.10;99.90
5011;DHT22;2524;54.364;10.072;2022-08-14T12:50:50;26.00;99.90
5011;DHT22;2524;54.364;10.072;2022-08-14T12:53:17;26.10;99.90
5011;DHT22;2524;54.364;10.072;2022-08-14T12:55:57;26.10;99.90
5011;DHT22;2524;54.364;10.072;2022-08-14T12:58:27;26.10;99.90
5011;DHT22;2524;54.364;10.072;2022-08-14T13:00:54;26.10;99.90
5011;DHT22;2524;54.364;10.072;2022-08-14T13:03:26;26.10;99.90
5011;DHT22;2524;54.364;10.072;2022-08-14T13:05:53;26.20;99.90
5011;DHT22;2524;54.364;10.072;2022-08-14T13:08:19;26.10;99.90
5011;DHT22;2524;54.364;10.072;2022-08-14T13:10:49;26.20;99.90
5011;DHT22;2524;54.364;10.072;2022-08-14T13:13:17;26.20;99.90
5011;DHT22;2524;54.364;10.072;2022-08-14T13:15:45;26.20;99.90
5011;DHT22;2524;54.364;10.072;2022-08-14T13:18:15;26.20;99.90
5011;DHT22;2524;54.364;10.072;2022-08-14T13:20:42;26.30;99.90
5011;DHT22;2524;54.364;10.072;2022-08-14T13:23:12;26.30;99.90
5011;DHT22;2524;54.364;10.072;2022-08-14T13:25:42;26.30;99.90
5011;DHT22;2524;54.364;10.072;2022-08-14T13:28:11;26.30;99.90
5011;DHT22;2524;54.364;10.072;2022-08-14T13:30:39;26.40;99.90
5011;DHT22;2524;54.364;10.072;2022-08-14T13:33:06;26.40;99.90
5011;DHT22;2524;54.364;10.072;2022-08-14T13:35:32;26.30;99.90
5011;DHT22;2524;54.364;10.072;2022-08-14T13:37:58;26.40;99.90
5011;DHT22;2524;54.364;10.072;2022-08-14T13:40:24;26.40;99.90
5011;DHT22;2524;54.364;10.072;2022-08-14T13:42:54;26.50;99.90
5011;DHT22;2524;54.364;10.072;2022-08-14T13:45:22;26.50;99.90
5011;DHT22;2524;54.364;10.072;2022-08-14T13:47:49;26.50;99.90
5011;DHT22;2524;54.364;10.072;2022-08-14T13:50:17;26.40;99.90
5011;DHT22;2524;54.364;10.072;2022-08-14T13:52:50;26.40;99.90
5011;DHT22;2524;54.364;10.072;2022-08-14T13:55:24;26.40;99.90
5011;DHT22;2524;54.364;10.072;2022-08-14T13:58:01;26.40;99.90
5011;DHT22;2524;54.364;10.072;2022-08-14T14:00:27;26.30;99.90
5011;DHT22;2524;54.364;10.072;2022-08-14T14:02:53;26.30;99.90
5011;DHT22;2524;54.364;10.072;2022-08-14T14:05:24;26.30;99.90
5011;DHT22;2524;54.364;10.072;2022-08-14T14:07:52;26.20;99.90
5011;DHT22;2524;54.364;10.072;2022-08-14T14:10:20;26.20;99.90
5011;DHT22;2524;54.364;10.072;2022-08-14T14:15:24;26.10;99.90
5011;DHT22;2524;54.364;10.072;2022-08-14T14:21:02;26.10;99.90
5011;DHT22;2524;54.364;10.072;2022-08-14T14:23:36;26.00;99.90
5011;DHT22;2524;54.364;10.072;2022-08-14T14:26:08;26.10;99.90
5011;DHT22;2524;54.364;10.072;2022-08-14T14:28:36;26.00;99.90
5011;DHT22;2524;54.364;10.072;2022-08-14T14:31:40;26.10;99.90
5011;DHT22;2524;54.364;10.072;2022-08-14T14:34:20;26.00;99.90
5011;DHT22;2524;54.364;10.072;2022-08-14T14:46:58;26.00;99.90
5011;DHT22;2524;54.364;10.072;2022-08-14T15:00:36;26.10;99.90
5011;DHT22;2524;54.364;10.072;2022-08-14T15:10:06;26.20;99.90
5011;DHT22;2524;54.364;10.072;2022-08-14T15:12:32;26.20;99.90
5011;DHT22;2524;54.364;10.072;2022-08-14T15:14:58;26.30;99.90
5011;DHT22;2524;54.364;10.072;2022-08-14T15:20:46;26.40;99.90
5011;DHT22;2524;54.364;10.072;2022-08-14T15:42:17;26.30;99.90
5011;DHT22;2524;54.364;10.072;2022-08-14T15:45:01;26.20;99.90
5011;DHT22;2524;54.364;10.072;2022-08-14T15:47:27;26.20;99.90
5011;DHT22;2524;54.364;10.072;2022-08-14T15:53:35;26.10;99.90
5011;DHT22;2524;54.364;10.072;2022-08-14T15:56:01;26.00;99.90
5011;DHT22;2524;54.364;10.072;2022-08-14T15:58:27;26.00;99.90
5011;DHT22;2524;54.364;10.072;2022-08-14T16:01:27;26.00;99.90
5011;DHT22;2524;54.364;10.072;2022-08-14T16:03:54;25.90;99.90
5011;DHT22;2524;54.364;10.072;2022-08-14T16:06:23;25.90;99.90
5011;DHT22;2524;54.364;10.072;2022-08-14T16:08:54;25.90;99.90
5011;DHT22;2524;54.364;10.072;2022-08-14T16:11:20;25.80;99.80
5011;DHT22;2524;54.364;10.072;2022-08-14T16:13:46;25.80;99.90
5011;DHT22;2524;54.364;10.072;2022-08-14T16:16:21;25.80;99.90
5011;DHT22;2524;54.364;10.072;2022-08-14T16:18:48;25.80;99.90
5011;DHT22;2524;54.364;10.072;2022-08-14T16:21:17;25.70;99.80
5011;DHT22;2524;54.364;10.072;2022-08-14T16:23:44;25.70;99.60
5011;DHT22;2524;54.364;10.072;2022-08-14T16:26:19;25.60;99.60
5011;DHT22;2524;54.364;10.072;2022-08-14T16:28:51;25.70;99.60
5011;DHT22;2524;54.364;10.072;2022-08-14T16:31:18;25.60;99.60
5011;DHT22;2524;54.364;10.072;2022-08-14T16:33:48;25.60;99.50
5011;DHT22;2524;54.364;10.072;2022-08-14T16:36:16;25.50;99.50
5011;DHT22;2524;54.364;10.072;2022-08-14T16:38:51;25.50;99.30
5011;DHT22;2524;54.364;10.072;2022-08-14T16:41:16;25.50;99.30
5011;DHT22;2524;54.364;10.072;2022-08-14T16:43:46;25.50;99.30
5011;DHT22;2524;54.364;10.072;2022-08-14T16:46:15;25.40;99.20
5011;DHT22;2524;54.364;10.072;2022-08-14T16:48:41;25.40;99.50
5011;DHT22;2524;54.364;10.072;2022-08-14T16:51:08;25.40;99.10
5011;DHT22;2524;54.364;10.072;2022-08-14T16:53:35;25.30;98.90
5011;DHT22;2524;54.364;10.072;2022-08-14T16:56:20;25.30;99.00
5011;DHT22;2524;54.364;10.072;2022-08-14T16:59:09;25.20;98.80
5011;DHT22;2524;54.364;10.072;2022-08-14T17:01:37;25.20;98.80
5011;DHT22;2524;54.364;10.072;2022-08-14T17:04:04;25.10;98.70
5011;DHT22;2524;54.364;10.072;2022-08-14T17:09:09;25.10;98.80
5011;DHT22;2524;54.364;10.072;2022-08-14T17:11:58;25.00;98.80
5011;DHT22;2524;54.364;10.072;2022-08-14T17:14:28;25.00;98.70
5011;DHT22;2524;54.364;10.072;2022-08-14T17:17:13;25.00;98.80
5011;DHT22;2524;54.364;10.072;2022-08-14T17:19:38;25.00;98.70
5011;DHT22;2524;54.364;10.072;2022-08-14T17:22:05;24.90;98.70
5011;DHT22;2524;54.364;10.072;2022-08-14T17:24:30;24.90;98.70